Time;durP1;ratioP1;P1;durP2;ratioP2;P2;SDS_P1;SDS_P2;PMS_P1;PMS_P2;Temp;Humidity;BMP_temperature;BMP_pressure;BME280_temperature;BME280_humidity;BME280_pressure;Samples;Min_cycle;Max_cycle;Signal;HPM_P1;HPM_P2
2021/12/02 00:01:48;;;;;;;39.35;26.48;;;;;;;;;;5097962;28;20386;-84
2021/12/02 00:04:15;;;;;;;16.52;12.68;;;;;;;;;;5115999;28;20030;-85
2021/12/02 00:06:41;;;;;;;36.42;23.42;;;;;;;;;;5097761;28;20061;-85
2021/12/02 00:09:07;;;;;;;51.83;37.40;;;;;;;;;;5097753;28;20131;-84
2021/12/02 00:11:33;;;;;;;50.55;35.90;;;;;;;;;;5115998;28;20031;-85
2021/12/02 00:14:05;;;;;;;31.02;22.95;;;;;;;;;;5097666;28;20031;-85
2021/12/02 00:22:02;;;;;;;34.80;22.58;;;;;;;;;;5115866;28;20145;-87
2021/12/02 00:24:33;;;;;;;34.50;22.58;;;;;;;;;;5115697;28;20024;-83
2021/12/02 00:27:00;;;;;;;32.95;22.73;;;;;;;;;;5115591;28;20031;-84
2021/12/02 00:29:27;;;;;;;34.03;21.85;;;;;;;;;;5097401;28;20386;-86
2021/12/02 00:31:53;;;;;;;18.98;12.52;;;;;;;;;;5115855;28;20028;-83
2021/12/02 00:34:20;;;;;;;16.05;11.77;;;;;;;;;;5097151;28;20051;-86
2021/12/02 00:36:46;;;;;;;16.75;11.27;;;;;;;;;;5097486;28;20027;-84
2021/12/02 00:39:12;;;;;;;28.38;16.85;;;;;;;;;;5096467;28;20526;-87
2021/12/02 00:41:39;;;;;;;32.58;19.40;;;;;;;;;;5097469;28;20039;-87
2021/12/02 00:44:05;;;;;;;34.38;22.27;;;;;;;;;;5115344;28;20080;-82
2021/12/02 00:46:33;;;;;;;52.67;31.90;;;;;;;;;;5097167;28;20082;-84
2021/12/02 00:49:02;;;;;;;68.60;40.42;;;;;;;;;;5097032;28;20023;-82
2021/12/02 00:51:29;;;;;;;70.97;41.67;;;;;;;;;;5115248;28;20492;-86
2021/12/02 00:54:00;;;;;;;50.45;32.15;;;;;;;;;;5115296;28;20364;-82
2021/12/02 00:56:26;;;;;;;57.20;35.05;;;;;;;;;;5096961;28;20486;-86
2021/12/02 00:58:55;;;;;;;51.83;31.92;;;;;;;;;;5115357;28;20031;-84
2021/12/02 01:01:23;;;;;;;50.08;32.22;;;;;;;;;;5099178;28;20028;-84
2021/12/02 01:03:51;;;;;;;56.50;34.58;;;;;;;;;;5115271;28;20080;-82
2021/12/02 01:06:17;;;;;;;51.33;29.70;;;;;;;;;;5096343;28;20032;-84
2021/12/02 01:08:43;;;;;;;46.65;30.65;;;;;;;;;;5114667;28;20024;-82
2021/12/02 01:11:10;;;;;;;39.47;23.42;;;;;;;;;;5114779;28;20492;-86
2021/12/02 01:13:36;;;;;;;35.65;22.70;;;;;;;;;;5096394;28;20485;-81
2021/12/02 01:16:03;;;;;;;45.50;28.45;;;;;;;;;;5096407;28;20028;-83
2021/12/02 01:18:29;;;;;;;47.47;31.42;;;;;;;;;;5114672;28;20063;-86
2021/12/02 01:20:56;;;;;;;39.20;25.90;;;;;;;;;;5114704;28;20390;-81
2021/12/02 01:23:22;;;;;;;42.13;26.63;;;;;;;;;;5114622;28;20024;-86
2021/12/02 01:25:53;;;;;;;37.63;25.45;;;;;;;;;;5096330;28;20036;-86
2021/12/02 01:28:19;;;;;;;40.05;25.17;;;;;;;;;;5114622;28;20032;-82
2021/12/02 01:30:46;;;;;;;49.28;30.17;;;;;;;;;;5114611;28;20492;-84
2021/12/02 01:33:13;;;;;;;55.00;35.15;;;;;;;;;;5095934;28;20103;-87
2021/12/02 01:35:40;;;;;;;30.42;19.08;;;;;;;;;;5114527;28;20030;-85
2021/12/02 01:38:07;;;;;;;34.83;23.30;;;;;;;;;;5114242;28;20043;-83
2021/12/02 01:40:33;;;;;;;27.55;18.85;;;;;;;;;;5114443;28;20077;-82
2021/12/02 01:43:00;;;;;;;37.60;28.13;;;;;;;;;;5114160;28;20072;-83
2021/12/02 01:45:28;;;;;;;40.28;29.50;;;;;;;;;;5114263;28;20036;-81
2021/12/02 01:47:56;;;;;;;39.75;27.67;;;;;;;;;;5114509;28;20031;-80
2021/12/02 01:50:23;;;;;;;77.47;39.45;;;;;;;;;;5113888;28;20020;-85
2021/12/02 01:52:57;;;;;;;82.35;39.47;;;;;;;;;;5114342;28;20103;-83
2021/12/02 01:55:24;;;;;;;58.50;28.98;;;;;;;;;;5114276;28;20039;-81
2021/12/02 01:57:59;;;;;;;28.05;17.38;;;;;;;;;;5113948;28;20081;-83
2021/12/02 02:00:27;;;;;;;19.30;12.68;;;;;;;;;;5114365;28;20019;-83
2021/12/02 02:02:54;;;;;;;16.60;12.30;;;;;;;;;;5114120;28;20475;-83
2021/12/02 02:05:20;;;;;;;18.52;14.45;;;;;;;;;;5114202;28;20066;-83
2021/12/02 02:07:53;;;;;;;16.42;11.05;;;;;;;;;;5114608;28;20031;-83
2021/12/02 02:10:19;;;;;;;13.00;9.25;;;;;;;;;;5114294;28;20035;-85
2021/12/02 02:12:46;;;;;;;13.05;9.82;;;;;;;;;;5115846;28;20128;-84
2021/12/02 02:15:12;;;;;;;17.85;11.40;;;;;;;;;;5114826;28;20023;-83
2021/12/02 02:17:46;;;;;;;18.98;14.43;;;;;;;;;;5095455;28;20024;-81
2021/12/02 02:20:14;;;;;;;24.08;17.35;;;;;;;;;;5095561;28;20039;-82
2021/12/02 02:22:40;;;;;;;26.50;17.23;;;;;;;;;;5114054;28;20055;-86
2021/12/02 02:25:12;;;;;;;25.77;17.70;;;;;;;;;;5113812;28;20035;-85
2021/12/02 02:27:38;;;;;;;24.80;15.95;;;;;;;;;;5095603;28;20110;-88
2021/12/02 02:30:08;;;;;;;23.83;14.50;;;;;;;;;;5113845;28;20132;-85
2021/12/02 02:32:34;;;;;;;17.80;12.07;;;;;;;;;;5113708;28;20031;-86
2021/12/02 02:35:00;;;;;;;14.82;10.27;;;;;;;;;;5113927;28;20028;-84
2021/12/02 02:37:31;;;;;;;14.27;10.13;;;;;;;;;;5113533;28;20027;-86
2021/12/02 02:39:58;;;;;;;15.02;11.25;;;;;;;;;;5113672;28;20056;-85
2021/12/02 02:42:25;;;;;;;17.20;11.15;;;;;;;;;;5113711;28;20027;-81
2021/12/02 02:44:51;;;;;;;15.45;9.88;;;;;;;;;;5113390;28;20486;-85
2021/12/02 02:47:18;;;;;;;15.95;9.70;;;;;;;;;;5113682;28;20038;-85
2021/12/02 02:49:48;;;;;;;14.52;9.90;;;;;;;;;;5095363;28;20024;-86
2021/12/02 02:52:14;;;;;;;28.63;17.17;;;;;;;;;;5095353;28;20047;-86
2021/12/02 02:54:40;;;;;;;28.20;19.75;;;;;;;;;;5113597;28;20382;-81
2021/12/02 02:57:07;;;;;;;15.23;11.35;;;;;;;;;;5113323;28;20024;-81
2021/12/02 03:02:12;;;;;;;11.65;7.93;;;;;;;;;;5114419;28;20024;-83
2021/12/02 03:04:50;;;;;;;14.40;8.60;;;;;;;;;;5117495;28;20023;-83
2021/12/02 03:09:51;;;;;;;13.00;9.90;;;;;;;;;;5117221;28;20108;-86
2021/12/02 03:12:33;;;;;;;11.75;8.60;;;;;;;;;;5117488;28;20042;-86
2021/12/02 03:17:29;;;;;;;13.75;8.18;;;;;;;;;;5117134;28;20042;-84
2021/12/02 03:19:56;;;;;;;18.25;14.02;;;;;;;;;;5117079;28;20032;-84
2021/12/02 03:22:22;;;;;;;32.40;22.25;;;;;;;;;;5117226;28;20026;-85
2021/12/02 03:24:48;;;;;;;32.80;21.65;;;;;;;;;;5118954;28;20482;-82
2021/12/02 03:27:14;;;;;;;31.13;21.08;;;;;;;;;;5117171;28;20027;-82
2021/12/02 03:29:41;;;;;;;27.88;17.90;;;;;;;;;;5116868;28;20060;-84
2021/12/02 03:32:08;;;;;;;51.55;29.58;;;;;;;;;;5116749;28;20121;-82
2021/12/02 03:34:35;;;;;;;41.92;24.92;;;;;;;;;;5116659;28;20058;-80
2021/12/02 03:37:01;;;;;;;31.10;18.08;;;;;;;;;;5116703;28;20036;-82
2021/12/02 03:39:27;;;;;;;23.38;15.75;;;;;;;;;;5116975;28;20027;-86
2021/12/02 03:41:54;;;;;;;19.92;12.32;;;;;;;;;;5098273;28;20050;-86
2021/12/02 03:44:21;;;;;;;22.83;14.82;;;;;;;;;;5116558;28;20054;-86
2021/12/02 03:46:48;;;;;;;17.45;10.77;;;;;;;;;;5098332;28;20036;-82
2021/12/02 03:49:14;;;;;;;15.90;9.80;;;;;;;;;;5116463;28;20024;-82
2021/12/02 03:51:40;;;;;;;14.13;9.93;;;;;;;;;;5116604;28;20058;-83
2021/12/02 03:54:06;;;;;;;14.52;10.45;;;;;;;;;;5116523;28;20470;-83
2021/12/02 03:56:33;;;;;;;16.60;10.60;;;;;;;;;;5116456;28;20065;-87
2021/12/02 03:58:59;;;;;;;9.20;8.20;;;;;;;;;;5116454;28;20019;-85
2021/12/02 04:01:25;;;;;;;11.07;7.90;;;;;;;;;;5116214;28;20036;-84
2021/12/02 04:03:51;;;;;;;12.55;8.50;;;;;;;;;;5116229;28;20482;-85
2021/12/02 04:06:18;;;;;;;14.32;9.98;;;;;;;;;;5116620;28;20070;-82
2021/12/02 04:08:58;;;;;;;13.80;9.02;;;;;;;;;;5116278;28;20027;-83
2021/12/02 04:17:14;;;;;;;15.68;10.18;;;;;;;;;;5033692;28;20051;-84
2021/12/02 04:19:41;;;;;;;14.00;10.07;;;;;;;;;;5033325;28;20080;-84
2021/12/02 04:22:07;;;;;;;12.65;9.20;;;;;;;;;;5033382;28;20465;-83
2021/12/02 04:24:34;;;;;;;12.30;7.68;;;;;;;;;;5016775;28;20495;-83
2021/12/02 04:27:00;;;;;;;10.45;6.88;;;;;;;;;;5112406;28;20031;-87
2021/12/02 04:29:26;;;;;;;16.73;12.48;;;;;;;;;;5115787;28;20533;-84
2021/12/02 04:31:53;;;;;;;35.78;19.98;;;;;;;;;;5098085;28;20027;-82
2021/12/02 04:34:19;;;;;;;35.50;21.60;;;;;;;;;;5097463;28;20047;-84
2021/12/02 04:36:45;;;;;;;27.23;17.42;;;;;;;;;;5098372;28;20031;-85
2021/12/02 04:39:12;;;;;;;28.15;17.85;;;;;;;;;;5116228;28;20027;-80
2021/12/02 04:41:38;;;;;;;27.60;17.40;;;;;;;;;;5115515;28;20027;-87
2021/12/02 04:44:04;;;;;;;27.58;17.33;;;;;;;;;;5115382;28;20026;-86
2021/12/02 04:46:31;;;;;;;30.50;19.90;;;;;;;;;;5115280;28;20057;-82
2021/12/02 04:48:57;;;;;;;25.10;16.77;;;;;;;;;;5115363;28;20024;-86
2021/12/02 04:51:23;;;;;;;19.20;12.80;;;;;;;;;;5115310;28;20466;-85
2021/12/02 04:53:49;;;;;;;17.92;12.52;;;;;;;;;;5096867;28;20421;-83
2021/12/02 04:56:15;;;;;;;13.35;9.40;;;;;;;;;;5115116;28;20027;-83
2021/12/02 04:58:41;;;;;;;16.55;12.27;;;;;;;;;;5115045;28;20107;-84
2021/12/02 05:01:08;;;;;;;22.60;12.55;;;;;;;;;;5115137;28;20099;-87
2021/12/02 05:03:34;;;;;;;27.58;15.32;;;;;;;;;;5096689;28;20500;-84
2021/12/02 05:06:00;;;;;;;22.30;13.30;;;;;;;;;;5114843;28;20466;-80
2021/12/02 05:08:26;;;;;;;18.42;11.20;;;;;;;;;;5115120;28;20024;-80
2021/12/02 05:10:52;;;;;;;64.93;36.42;;;;;;;;;;5096797;28;20028;-82
2021/12/02 05:13:18;;;;;;;30.13;18.67;;;;;;;;;;5114999;28;20027;-79
2021/12/02 05:15:44;;;;;;;31.85;19.88;;;;;;;;;;5114807;28;20026;-82
2021/12/02 05:18:10;;;;;;;30.58;19.05;;;;;;;;;;5114993;28;20031;-84
2021/12/02 05:20:37;;;;;;;41.78;23.85;;;;;;;;;;5114615;28;20479;-85
2021/12/02 05:23:03;;;;;;;40.85;24.13;;;;;;;;;;5115040;28;20024;-84
2021/12/02 05:25:29;;;;;;;40.65;27.05;;;;;;;;;;5114252;28;20077;-85
2021/12/02 05:27:55;;;;;;;35.40;23.35;;;;;;;;;;5114644;28;20035;-86
2021/12/02 05:30:21;;;;;;;62.15;39.33;;;;;;;;;;5114699;28;20030;-86
2021/12/02 05:32:47;;;;;;;115.63;69.85;;;;;;;;;;5114264;28;20055;-79
2021/12/02 05:35:13;;;;;;;85.90;49.33;;;;;;;;;;5114443;28;20030;-81
2021/12/02 05:37:40;;;;;;;55.05;30.10;;;;;;;;;;5114265;28;20491;-82
2021/12/02 05:40:06;;;;;;;47.65;29.23;;;;;;;;;;5114716;28;20458;-87
2021/12/02 05:42:32;;;;;;;37.25;23.33;;;;;;;;;;5114600;28;20019;-84
2021/12/02 05:44:59;;;;;;;38.15;23.42;;;;;;;;;;5114216;28;20050;-81
2021/12/02 05:47:25;;;;;;;41.63;25.50;;;;;;;;;;5114842;28;20030;-78
2021/12/02 05:49:51;;;;;;;33.10;20.63;;;;;;;;;;5114537;28;20051;-86
2021/12/02 05:52:17;;;;;;;40.30;26.35;;;;;;;;;;5096334;28;20030;-85
2021/12/02 05:54:43;;;;;;;50.03;31.70;;;;;;;;;;5114646;28;20024;-87
2021/12/02 05:57:09;;;;;;;40.03;25.77;;;;;;;;;;5114354;28;20519;-82
2021/12/02 05:59:36;;;;;;;24.55;16.83;;;;;;;;;;5114252;28;20028;-79
2021/12/02 06:02:02;;;;;;;29.25;16.95;;;;;;;;;;5114426;28;20042;-85
2021/12/02 06:04:28;;;;;;;31.02;20.13;;;;;;;;;;5095927;28;20072;-86
2021/12/02 06:06:54;;;;;;;30.63;20.30;;;;;;;;;;5114019;28;20031;-85
2021/12/02 06:09:21;;;;;;;31.00;19.63;;;;;;;;;;5114332;28;20072;-83
2021/12/02 06:11:47;;;;;;;41.80;26.70;;;;;;;;;;5096228;28;20510;-84
2021/12/02 06:14:14;;;;;;;46.70;30.08;;;;;;;;;;5093895;28;20055;-82
2021/12/02 06:16:41;;;;;;;49.95;33.53;;;;;;;;;;5101499;28;20020;-82
2021/12/02 06:19:07;;;;;;;56.50;36.88;;;;;;;;;;5094212;28;20081;-82
2021/12/02 06:21:33;;;;;;;44.30;31.67;;;;;;;;;;5114230;28;20039;-82
2021/12/02 06:24:01;;;;;;;27.67;19.40;;;;;;;;;;5114393;28;20020;-86
2021/12/02 06:26:28;;;;;;;33.38;22.15;;;;;;;;;;5095178;28;20548;-80
2021/12/02 06:28:54;;;;;;;35.08;23.67;;;;;;;;;;5114018;28;20116;-86
2021/12/02 06:31:21;;;;;;;41.53;25.77;;;;;;;;;;5095270;28;20023;-86
2021/12/02 06:33:47;;;;;;;37.28;25.85;;;;;;;;;;5109042;28;20061;-85
2021/12/02 06:36:13;;;;;;;53.92;34.47;;;;;;;;;;5110953;28;20040;-83
2021/12/02 06:38:41;;;;;;;68.18;42.20;;;;;;;;;;5097762;28;20027;-85
2021/12/02 06:41:07;;;;;;;72.28;47.72;;;;;;;;;;5116418;28;20054;-85
2021/12/02 06:43:34;;;;;;;82.80;54.35;;;;;;;;;;5116243;28;20062;-81
2021/12/02 06:46:00;;;;;;;78.53;50.13;;;;;;;;;;5116710;28;20032;-90
2021/12/02 06:48:26;;;;;;;90.32;56.05;;;;;;;;;;5116362;28;20027;-84
2021/12/02 06:50:52;;;;;;;93.88;56.67;;;;;;;;;;5115299;28;20501;-85
2021/12/02 06:53:19;;;;;;;74.68;48.17;;;;;;;;;;5116395;28;20454;-78
2021/12/02 06:55:46;;;;;;;39.65;25.95;;;;;;;;;;5113374;28;20444;-84
2021/12/02 06:58:12;;;;;;;45.20;28.15;;;;;;;;;;5114651;28;20023;-84
2021/12/02 07:00:41;;;;;;;49.20;33.03;;;;;;;;;;5098135;28;20387;-82
2021/12/02 07:03:07;;;;;;;56.50;35.15;;;;;;;;;;5093869;28;20119;-86
2021/12/02 07:05:34;;;;;;;54.22;36.50;;;;;;;;;;5094738;28;20032;-82
2021/12/02 07:08:00;;;;;;;69.32;42.58;;;;;;;;;;5077571;28;20535;-87
2021/12/02 07:10:28;;;;;;;83.80;50.13;;;;;;;;;;5098306;28;20067;-84
2021/12/02 07:18:25;;;;;;;63.88;41.33;;;;;;;;;;5114946;28;20505;-82
2021/12/02 07:20:54;;;;;;;72.18;46.78;;;;;;;;;;5115505;28;20028;-82
2021/12/02 07:23:22;;;;;;;92.13;58.65;;;;;;;;;;5115763;28;20059;-86
2021/12/02 07:25:49;;;;;;;150.32;96.82;;;;;;;;;;5097171;28;20037;-85
2021/12/02 07:28:16;;;;;;;133.25;84.15;;;;;;;;;;5115194;28;20462;-83
2021/12/02 07:30:42;;;;;;;126.15;82.82;;;;;;;;;;5115153;28;20024;-81
2021/12/02 07:33:10;;;;;;;133.85;86.88;;;;;;;;;;5115014;28;20136;-84
2021/12/02 07:35:37;;;;;;;72.93;48.92;;;;;;;;;;5114626;28;20019;-84
2021/12/02 07:38:04;;;;;;;77.60;51.10;;;;;;;;;;5115103;28;20493;-82
2021/12/02 07:40:33;;;;;;;50.13;33.97;;;;;;;;;;5114566;28;20106;-85
2021/12/02 07:43:00;;;;;;;46.20;33.55;;;;;;;;;;5114526;28;20024;-82
2021/12/02 07:45:29;;;;;;;54.15;37.15;;;;;;;;;;5096091;28;20039;-84
2021/12/02 07:47:55;;;;;;;38.22;28.48;;;;;;;;;;5114528;28;20466;-83
2021/12/02 07:50:22;;;;;;;44.70;35.33;;;;;;;;;;5114653;28;20024;-82
2021/12/02 07:52:48;;;;;;;62.40;37.50;;;;;;;;;;5114417;28;20028;-83
2021/12/02 07:55:19;;;;;;;33.60;24.35;;;;;;;;;;5113802;28;20077;-85
2021/12/02 07:57:46;;;;;;;38.38;27.38;;;;;;;;;;5115038;28;20032;-83
2021/12/02 08:00:22;;;;;;;34.72;25.00;;;;;;;;;;5114325;28;20131;-83
2021/12/02 08:02:57;;;;;;;19.35;15.13;;;;;;;;;;5113626;28;20069;-84
2021/12/02 08:05:24;;;;;;;25.60;18.98;;;;;;;;;;5114196;28;20031;-84
2021/12/02 08:07:51;;;;;;;23.83;19.20;;;;;;;;;;5095837;28;20031;-84
2021/12/02 08:10:17;;;;;;;26.92;21.23;;;;;;;;;;5114369;28;20035;-88
2021/12/02 08:12:50;;;;;;;38.05;27.42;;;;;;;;;;5116252;28;20063;-83
2021/12/02 08:15:21;;;;;;;37.03;27.80;;;;;;;;;;5095799;28;20393;-85
2021/12/02 08:17:48;;;;;;;46.90;34.15;;;;;;;;;;5094791;28;20237;-84
2021/12/02 08:20:14;;;;;;;46.15;33.60;;;;;;;;;;5113839;28;20051;-83
2021/12/02 08:22:41;;;;;;;51.72;35.03;;;;;;;;;;5113803;28;20027;-83
2021/12/02 08:25:07;;;;;;;70.82;46.85;;;;;;;;;;5114043;28;20075;-82
2021/12/02 08:27:38;;;;;;;65.95;45.10;;;;;;;;;;5113173;28;20038;-86
2021/12/02 08:30:08;;;;;;;41.65;30.45;;;;;;;;;;5095723;28;20039;-84
2021/12/02 08:32:42;;;;;;;37.00;25.75;;;;;;;;;;5101360;28;20136;-84
2021/12/02 08:35:09;;;;;;;44.20;31.23;;;;;;;;;;5091700;28;20051;-84
2021/12/02 08:37:40;;;;;;;32.97;25.25;;;;;;;;;;5094828;28;20028;-85
2021/12/02 08:40:06;;;;;;;32.88;24.40;;;;;;;;;;5094860;28;20028;-86
2021/12/02 08:42:35;;;;;;;31.83;21.63;;;;;;;;;;5107286;28;20056;-83
2021/12/02 08:45:03;;;;;;;36.80;26.27;;;;;;;;;;5101068;28;20027;-86
2021/12/02 08:47:29;;;;;;;34.80;25.15;;;;;;;;;;5092139;28;20487;-83
2021/12/02 08:49:56;;;;;;;40.05;24.88;;;;;;;;;;5091706;28;20119;-84
2021/12/02 08:52:23;;;;;;;34.22;23.05;;;;;;;;;;5112715;28;20024;-81
2021/12/02 08:54:50;;;;;;;30.98;20.23;;;;;;;;;;5112946;28;20046;-83
2021/12/02 08:57:17;;;;;;;26.83;18.90;;;;;;;;;;5113025;28;20027;-80
2021/12/02 08:59:44;;;;;;;22.10;15.70;;;;;;;;;;5111188;28;20394;-83
2021/12/02 09:02:13;;;;;;;22.85;14.65;;;;;;;;;;5112898;28;20449;-84
2021/12/02 09:04:49;;;;;;;17.73;13.43;;;;;;;;;;5093594;28;20024;-83
2021/12/02 09:07:16;;;;;;;17.98;11.93;;;;;;;;;;5113008;28;20114;-81
2021/12/02 09:09:45;;;;;;;12.40;9.60;;;;;;;;;;5113125;28;20024;-81
2021/12/02 09:12:11;;;;;;;15.85;10.15;;;;;;;;;;5113820;28;20763;-80
2021/12/02 09:14:37;;;;;;;12.95;9.38;;;;;;;;;;5112502;28;20024;-81
2021/12/02 09:17:04;;;;;;;17.70;11.13;;;;;;;;;;5112921;28;20030;-80
2021/12/02 09:19:30;;;;;;;15.32;8.82;;;;;;;;;;5093803;28;20035;-82
2021/12/02 09:21:56;;;;;;;10.40;8.07;;;;;;;;;;5111094;28;20375;-80
2021/12/02 09:24:23;;;;;;;9.55;7.13;;;;;;;;;;5111068;28;20093;-82
2021/12/02 09:26:50;;;;;;;17.83;11.55;;;;;;;;;;5105443;28;20055;-79
2021/12/02 09:29:18;;;;;;;16.45;9.45;;;;;;;;;;5100556;28;20028;-82
2021/12/02 09:31:46;;;;;;;7.40;5.40;;;;;;;;;;5103856;28;20554;-83
2021/12/02 09:34:13;;;;;;;6.25;4.32;;;;;;;;;;5094139;28;20051;-82
2021/12/02 09:36:39;;;;;;;8.55;5.07;;;;;;;;;;5110983;28;20080;-80
2021/12/02 09:39:07;;;;;;;7.25;5.30;;;;;;;;;;5112860;28;20032;-84
2021/12/02 09:41:33;;;;;;;10.50;5.95;;;;;;;;;;5111484;28;20035;-85
2021/12/02 09:44:00;;;;;;;7.20;5.70;;;;;;;;;;5109753;28;20045;-81
2021/12/02 09:46:26;;;;;;;11.32;8.13;;;;;;;;;;5102608;28;20036;-80
2021/12/02 09:48:54;;;;;;;14.23;8.38;;;;;;;;;;5110684;28;20056;-82
2021/12/02 09:51:33;;;;;;;14.05;8.68;;;;;;;;;;5093692;28;20031;-87
2021/12/02 09:54:12;;;;;;;6.07;4.80;;;;;;;;;;5091041;28;20131;-83
2021/12/02 09:56:41;;;;;;;9.50;6.32;;;;;;;;;;5111602;28;20224;-82
2021/12/02 09:59:11;;;;;;;8.18;5.70;;;;;;;;;;5092910;28;20035;-83
2021/12/02 10:01:41;;;;;;;7.03;4.65;;;;;;;;;;5111733;28;20028;-81
2021/12/02 10:04:11;;;;;;;7.65;5.10;;;;;;;;;;5111877;28;20023;-83
2021/12/02 10:06:40;;;;;;;18.50;13.48;;;;;;;;;;5104670;28;20058;-81
2021/12/02 10:09:13;;;;;;;36.20;23.92;;;;;;;;;;5111343;28;20497;-82
2021/12/02 10:17:38;;;;;;;8.07;5.10;;;;;;;;;;5097887;28;20118;-89
2021/12/02 10:23:33;;;;;;;6.82;5.85;;;;;;;;;;5113647;28;20043;-84
2021/12/02 10:26:06;;;;;;;10.07;5.32;;;;;;;;;;5092773;28;20490;-84
2021/12/02 10:28:36;;;;;;;7.90;5.78;;;;;;;;;;5111407;28;20024;-84
2021/12/02 10:31:10;;;;;;;7.43;5.90;;;;;;;;;;5091214;28;20028;-84
2021/12/02 10:33:57;;;;;;;11.25;7.85;;;;;;;;;;5073139;28;20506;-85
2021/12/02 10:36:31;;;;;;;12.98;7.38;;;;;;;;;;5090638;28;20042;-82
2021/12/02 10:38:59;;;;;;;11.40;6.20;;;;;;;;;;5092940;28;20024;-84
2021/12/02 10:41:29;;;;;;;7.88;5.40;;;;;;;;;;5111143;28;20070;-83
2021/12/02 10:44:15;;;;;;;7.82;6.65;;;;;;;;;;5093025;28;20023;-83
2021/12/02 10:46:42;;;;;;;;;;;;;;;;;;5111956;28;20040;-83
2021/12/02 10:49:15;;;;;;;9.45;5.22;;;;;;;;;;5110024;28;19962;-82
2021/12/02 10:51:46;;;;;;;6.90;5.05;;;;;;;;;;5092590;28;20096;-82
2021/12/02 10:54:16;;;;;;;7.00;5.75;;;;;;;;;;5092601;28;20398;-82
2021/12/02 10:56:54;;;;;;;6.70;4.68;;;;;;;;;;5111445;28;20024;-83
2021/12/02 10:59:25;;;;;;;7.43;4.85;;;;;;;;;;5092339;28;20027;-83
2021/12/02 11:01:54;;;;;;;5.60;5.03;;;;;;;;;;5111251;28;20020;-82
2021/12/02 11:04:21;;;;;;;8.38;5.60;;;;;;;;;;5111318;28;20042;-85
2021/12/02 11:06:50;;;;;;;10.63;7.05;;;;;;;;;;5110953;28;20031;-81
2021/12/02 11:09:28;;;;;;;9.05;6.15;;;;;;;;;;5110435;28;20097;-84
2021/12/02 11:12:24;;;;;;;12.02;8.48;;;;;;;;;;5092816;28;20149;-83
2021/12/02 11:15:07;;;;;;;8.30;6.78;;;;;;;;;;5089044;28;20077;-80
2021/12/02 11:17:36;;;;;;;12.35;8.75;;;;;;;;;;5107983;28;20027;-85
2021/12/02 11:20:05;;;;;;;11.63;8.45;;;;;;;;;;5110841;28;20024;-82
2021/12/02 11:22:31;;;;;;;8.15;5.90;;;;;;;;;;5092308;28;20482;-82
2021/12/02 11:24:58;;;;;;;7.15;4.88;;;;;;;;;;5115117;28;20028;-85
2021/12/02 11:27:24;;;;;;;8.55;6.07;;;;;;;;;;5113519;28;20090;-82
2021/12/02 11:30:01;;;;;;;8.68;6.63;;;;;;;;;;5113497;28;20035;-81
2021/12/02 11:32:41;;;;;;;8.18;5.78;;;;;;;;;;5114274;28;20027;-81
2021/12/02 11:35:12;;;;;;;9.10;6.47;;;;;;;;;;5114191;28;20039;-82
2021/12/02 11:37:40;;;;;;;6.63;4.90;;;;;;;;;;5105086;28;20099;-81
2021/12/02 11:40:26;;;;;;;7.35;6.35;;;;;;;;;;5107983;28;20035;-84
2021/12/02 11:42:53;;;;;;;11.35;6.13;;;;;;;;;;5110517;28;20035;-83
2021/12/02 11:45:21;;;;;;;7.93;5.57;;;;;;;;;;5093038;28;20035;-85
2021/12/02 11:47:47;;;;;;;6.68;5.13;;;;;;;;;;5114053;28;20039;-85
2021/12/02 11:50:22;;;;;;;6.85;5.70;;;;;;;;;;5095795;28;20058;-83
2021/12/02 11:52:48;;;;;;;6.53;4.55;;;;;;;;;;5095499;28;20084;-84
2021/12/02 11:55:17;;;;;;;6.10;5.05;;;;;;;;;;5094491;28;20051;-82
2021/12/02 11:57:44;;;;;;;9.52;6.75;;;;;;;;;;5094637;28;20024;-80
2021/12/02 12:00:14;;;;;;;11.80;8.90;;;;;;;;;;5114061;28;20042;-83
2021/12/02 12:02:59;;;;;;;14.95;9.18;;;;;;;;;;5094920;28;20026;-83
2021/12/02 12:05:25;;;;;;;;;;;;;;;;;;5095643;28;20044;-79
2021/12/02 12:07:54;;;;;;;6.93;4.70;;;;;;;;;;5113532;28;19910;-79
2021/12/02 12:10:25;;;;;;;6.97;5.38;;;;;;;;;;5112970;28;20103;-77
2021/12/02 12:12:52;;;;;;;6.90;5.10;;;;;;;;;;5112082;28;20070;-79
2021/12/02 12:15:31;;;;;;;7.28;5.10;;;;;;;;;;5091481;28;20039;-81
2021/12/02 12:17:58;;;;;;;6.63;5.30;;;;;;;;;;5093913;28;20451;-82
2021/12/02 12:20:43;;;;;;;9.35;5.00;;;;;;;;;;5112062;28;20028;-84
2021/12/02 12:23:32;;;;;;;7.22;5.00;;;;;;;;;;5106098;28;20028;-84
2021/12/02 12:26:17;;;;;;;6.13;3.97;;;;;;;;;;5085720;28;20486;-82
2021/12/02 12:29:02;;;;;;;11.30;7.63;;;;;;;;;;5098524;28;20179;-81
2021/12/02 12:31:29;;;;;;;9.52;5.75;;;;;;;;;;5105595;28;20067;-81
2021/12/02 12:33:56;;;;;;;8.68;4.82;;;;;;;;;;5112884;28;20048;-81
2021/12/02 12:36:40;;;;;;;12.25;7.75;;;;;;;;;;5106682;28;20052;-83
2021/12/02 12:39:28;;;;;;;9.68;6.63;;;;;;;;;;5114200;28;20024;-82
2021/12/02 12:42:21;;;;;;;13.60;6.25;;;;;;;;;;5114221;28;20076;-82
2021/12/02 12:45:06;;;;;;;8.15;6.05;;;;;;;;;;5109029;28;20048;-83
2021/12/02 12:47:50;;;;;;;17.55;10.35;;;;;;;;;;5113331;28;20036;-81
2021/12/02 12:50:23;;;;;;;10.25;7.50;;;;;;;;;;5109138;28;20043;-82
2021/12/02 12:53:19;;;;;;;13.40;8.85;;;;;;;;;;5113532;28;20071;-82
2021/12/02 12:56:08;;;;;;;14.25;9.35;;;;;;;;;;5110313;28;20131;-80
2021/12/02 12:58:36;;;;;;;13.63;11.20;;;;;;;;;;5093308;28;20551;-83
2021/12/02 13:01:21;;;;;;;8.93;6.95;;;;;;;;;;5114350;28;20030;-82
2021/12/02 13:03:47;;;;;;;;;;;;;;;;;;5114270;28;20671;-83
2021/12/02 13:08:50;;;;;;;7.43;5.68;;;;;;;;;;5111843;28;20032;-82
2021/12/02 13:11:18;;;;;;;6.00;5.10;;;;;;;;;;5097238;28;20036;-83
2021/12/02 13:13:45;;;;;;;22.55;15.05;;;;;;;;;;5107669;28;20023;-84
2021/12/02 13:16:18;;;;;;;20.33;12.63;;;;;;;;;;5096150;28;20467;-86
2021/12/02 13:18:45;;;;;;;17.02;11.70;;;;;;;;;;5112323;28;20081;-81
2021/12/02 13:21:21;;;;;;;37.33;19.33;;;;;;;;;;5102067;28;20028;-81
2021/12/02 13:23:55;;;;;;;38.13;21.20;;;;;;;;;;5100871;28;20046;-82
2021/12/02 13:26:41;;;;;;;23.15;14.90;;;;;;;;;;5113422;28;20032;-81
2021/12/02 13:29:15;;;;;;;22.02;14.50;;;;;;;;;;5100866;28;20422;-81
2021/12/02 13:31:51;;;;;;;14.38;9.88;;;;;;;;;;5113131;28;20379;-81
2021/12/02 13:34:18;;;;;;;13.38;10.75;;;;;;;;;;5113068;28;20047;-82
2021/12/02 13:36:45;;;;;;;16.42;10.45;;;;;;;;;;5111186;28;20494;-78
2021/12/02 13:39:17;;;;;;;6.88;5.20;;;;;;;;;;5113383;28;20038;-82
2021/12/02 13:42:02;;;;;;;6.00;5.40;;;;;;;;;;5111821;28;20081;-89
2021/12/02 13:44:34;;;;;;;6.47;5.65;;;;;;;;;;5113101;28;21191;-86
2021/12/02 13:47:01;;;;;;;6.30;5.25;;;;;;;;;;5113964;28;20083;-85
2021/12/02 13:49:30;;;;;;;7.45;4.80;;;;;;;;;;5112507;28;20064;-84
2021/12/02 13:55:07;;;;;;;19.58;12.77;;;;;;;;;;5102786;28;20037;-85
2021/12/02 13:57:38;;;;;;;8.88;7.47;;;;;;;;;;5091952;28;20177;-85
2021/12/02 14:00:23;;;;;;;9.57;6.50;;;;;;;;;;5109942;28;20038;-83
2021/12/02 14:02:51;;;;;;;7.97;5.85;;;;;;;;;;5111832;28;20031;-85
2021/12/02 14:05:19;;;;;;;14.60;10.80;;;;;;;;;;5111296;28;20028;-84
2021/12/02 14:07:46;;;;;;;12.55;10.05;;;;;;;;;;5112880;28;20023;-84
2021/12/02 14:10:14;;;;;;;15.90;11.23;;;;;;;;;;5112897;28;20113;-84
2021/12/02 14:12:44;;;;;;;17.95;12.40;;;;;;;;;;5112815;28;20052;-85
2021/12/02 14:15:28;;;;;;;16.38;10.32;;;;;;;;;;5113046;28;20123;-85
2021/12/02 14:17:56;;;;;;;11.88;7.03;;;;;;;;;;5113471;28;20020;-83
2021/12/02 14:20:24;;;;;;;7.65;5.78;;;;;;;;;;5113754;28;20023;-84
2021/12/02 14:22:55;;;;;;;6.72;5.35;;;;;;;;;;5112638;28;20046;-84
2021/12/02 14:25:24;;;;;;;9.52;5.10;;;;;;;;;;5112272;28;20070;-84
2021/12/02 14:28:10;;;;;;;9.15;5.45;;;;;;;;;;5111906;28;20045;-84
2021/12/02 14:30:37;;;;;;;10.40;8.02;;;;;;;;;;5112006;28;20066;-85
2021/12/02 14:33:05;;;;;;;9.43;6.00;;;;;;;;;;5111707;28;21879;-81
2021/12/02 14:35:40;;;;;;;9.27;8.27;;;;;;;;;;5092688;28;20028;-84
2021/12/02 14:38:16;;;;;;;6.45;5.28;;;;;;;;;;5092314;28;20106;-82
2021/12/02 14:40:48;;;;;;;7.03;5.38;;;;;;;;;;5092412;28;20033;-81
2021/12/02 14:43:22;;;;;;;7.82;5.03;;;;;;;;;;5091924;28;20021;-81
2021/12/02 14:45:49;;;;;;;8.97;6.03;;;;;;;;;;5092291;28;20111;-82
2021/12/02 14:48:20;;;;;;;12.65;7.50;;;;;;;;;;5090885;28;20490;-83
2021/12/02 14:50:56;;;;;;;10.98;7.45;;;;;;;;;;5112708;28;20064;-82
2021/12/02 14:53:41;;;;;;;11.45;7.20;;;;;;;;;;5112559;28;20023;-82
2021/12/02 14:56:20;;;;;;;17.17;10.48;;;;;;;;;;5112250;28;20035;-82
2021/12/02 14:59:04;;;;;;;24.05;17.00;;;;;;;;;;5114077;28;20027;-82
2021/12/02 15:01:30;;;;;;;;;;;;;;;;;;5098728;28;20059;-82
2021/12/02 15:03:57;;;;;;;22.15;12.63;;;;;;;;;;5097676;28;19950;-82
2021/12/02 15:06:38;;;;;;;18.45;11.93;;;;;;;;;;5115919;28;20039;-82
2021/12/02 15:09:24;;;;;;;20.48;13.85;;;;;;;;;;5098735;28;20054;-81
2021/12/02 15:11:51;;;;;;;19.48;13.05;;;;;;;;;;5117191;28;20020;-82
2021/12/02 15:14:35;;;;;;;18.15;12.88;;;;;;;;;;5117169;28;20046;-82
2021/12/02 15:17:02;;;;;;;20.48;13.75;;;;;;;;;;5117447;28;20015;-84
2021/12/02 15:19:55;;;;;;;19.83;12.90;;;;;;;;;;5115763;28;20019;-83